sensor_id;sensor_type;location;lat;lon;timestamp;temperature;humidity
7002;DHT22;3541;53.230;10.518;2022-12-18T00:02:26;-3.20;99.90
7002;DHT22;3541;53.230;10.518;2022-12-18T00:04:53;-3.20;99.90
7002;DHT22;3541;53.230;10.518;2022-12-18T00:07:20;-3.20;99.90
7002;DHT22;3541;53.230;10.518;2022-12-18T00:09:46;-3.20;99.90
7002;DHT22;3541;53.230;10.518;2022-12-18T00:12:13;-3.20;99.90
7002;DHT22;3541;53.230;10.518;2022-12-18T00:14:41;-3.20;99.90
7002;DHT22;3541;53.230;10.518;2022-12-18T00:17:10;-3.20;99.90
7002;DHT22;3541;53.230;10.518;2022-12-18T00:19:37;-3.20;99.90
7002;DHT22;3541;53.230;10.518;2022-12-18T00:22:03;-3.30;99.90
7002;DHT22;3541;53.230;10.518;2022-12-18T00:24:31;-3.20;99.90
7002;DHT22;3541;53.230;10.518;2022-12-18T00:26:58;-3.30;99.90
7002;DHT22;3541;53.230;10.518;2022-12-18T00:29:24;-3.30;99.90
7002;DHT22;3541;53.230;10.518;2022-12-18T00:31:52;-3.20;99.90
7002;DHT22;3541;53.230;10.518;2022-12-18T00:34:19;-3.30;99.90
7002;DHT22;3541;53.230;10.518;2022-12-18T00:36:47;-3.30;99.90
7002;DHT22;3541;53.230;10.518;2022-12-18T00:39:14;-3.40;99.90
7002;DHT22;3541;53.230;10.518;2022-12-18T00:41:41;-3.40;99.90
7002;DHT22;3541;53.230;10.518;2022-12-18T00:44:25;-3.40;99.90
7002;DHT22;3541;53.230;10.518;2022-12-18T00:46:53;-3.40;99.90
7002;DHT22;3541;53.230;10.518;2022-12-18T00:49:20;-3.50;99.90
7002;DHT22;3541;53.230;10.518;2022-12-18T00:51:47;-3.40;99.90
7002;DHT22;3541;53.230;10.518;2022-12-18T00:54:14;-3.50;99.90
7002;DHT22;3541;53.230;10.518;2022-12-18T00:56:41;-3.50;99.90
7002;DHT22;3541;53.230;10.518;2022-12-18T00:59:08;-3.50;99.90
7002;DHT22;3541;53.230;10.518;2022-12-18T01:01:34;-3.60;99.90
7002;DHT22;3541;53.230;10.518;2022-12-18T01:04:03;-3.60;99.90
7002;DHT22;3541;53.230;10.518;2022-12-18T01:06:32;-3.60;99.90
7002;DHT22;3541;53.230;10.518;2022-12-18T01:08:59;-3.60;99.90
7002;DHT22;3541;53.230;10.518;2022-12-18T01:11:25;-3.60;99.90
7002;DHT22;3541;53.230;10.518;2022-12-18T01:13:52;-3.60;99.90
7002;DHT22;3541;53.230;10.518;2022-12-18T01:16:20;-3.60;99.90
7002;DHT22;3541;53.230;10.518;2022-12-18T01:18:47;-3.60;99.90
7002;DHT22;3541;53.230;10.518;2022-12-18T01:21:16;-3.70;99.90
7002;DHT22;3541;53.230;10.518;2022-12-18T01:23:45;-3.80;99.90
7002;DHT22;3541;53.230;10.518;2022-12-18T01:26:13;-3.70;99.90
7002;DHT22;3541;53.230;10.518;2022-12-18T01:28:41;-3.60;99.90
7002;DHT22;3541;53.230;10.518;2022-12-18T01:31:13;-3.70;99.90
7002;DHT22;3541;53.230;10.518;2022-12-18T01:33:40;-3.70;99.90
7002;DHT22;3541;53.230;10.518;2022-12-18T01:36:07;-3.70;99.90
7002;DHT22;3541;53.230;10.518;2022-12-18T01:38:35;-3.80;99.90
7002;DHT22;3541;53.230;10.518;2022-12-18T01:41:02;-3.80;99.90
7002;DHT22;3541;53.230;10.518;2022-12-18T01:43:52;-3.80;99.90
7002;DHT22;3541;53.230;10.518;2022-12-18T01:46:22;-3.70;99.90
7002;DHT22;3541;53.230;10.518;2022-12-18T01:48:56;-3.80;99.90
7002;DHT22;3541;53.230;10.518;2022-12-18T01:51:23;-3.90;99.90
7002;DHT22;3541;53.230;10.518;2022-12-18T01:53:51;-3.80;99.90
7002;DHT22;3541;53.230;10.518;2022-12-18T01:56:19;-3.80;99.90
7002;DHT22;3541;53.230;10.518;2022-12-18T01:58:52;-3.80;99.90
7002;DHT22;3541;53.230;10.518;2022-12-18T02:01:21;-3.90;99.90
7002;DHT22;3541;53.230;10.518;2022-12-18T02:03:48;-3.80;99.90
7002;DHT22;3541;53.230;10.518;2022-12-18T02:06:18;-3.80;99.90
7002;DHT22;3541;53.230;10.518;2022-12-18T02:08:53;-3.80;99.90
7002;DHT22;3541;53.230;10.518;2022-12-18T02:11:30;-3.80;99.90
7002;DHT22;3541;53.230;10.518;2022-12-18T02:14:04;-3.80;99.90
7002;DHT22;3541;53.230;10.518;2022-12-18T02:16:39;-3.80;99.90
7002;DHT22;3541;53.230;10.518;2022-12-18T02:19:20;-3.80;99.90
7002;DHT22;3541;53.230;10.518;2022-12-18T02:21:58;-4.00;99.90
7002;DHT22;3541;53.230;10.518;2022-12-18T02:24:34;-4.00;99.90
7002;DHT22;3541;53.230;10.518;2022-12-18T02:27:04;-4.10;99.90
7002;DHT22;3541;53.230;10.518;2022-12-18T02:29:35;-4.10;99.90
7002;DHT22;3541;53.230;10.518;2022-12-18T02:32:08;-4.20;99.90
7002;DHT22;3541;53.230;10.518;2022-12-18T02:34:38;-4.30;99.90
7002;DHT22;3541;53.230;10.518;2022-12-18T02:37:07;-4.30;99.90
7002;DHT22;3541;53.230;10.518;2022-12-18T02:39:37;-4.20;99.90
7002;DHT22;3541;53.230;10.518;2022-12-18T02:42:06;-4.30;99.90
7002;DHT22;3541;53.230;10.518;2022-12-18T02:44:33;-4.30;99.90
7002;DHT22;3541;53.230;10.518;2022-12-18T02:47:00;-4.30;99.90
7002;DHT22;3541;53.230;10.518;2022-12-18T02:49:36;-4.30;99.90
7002;DHT22;3541;53.230;10.518;2022-12-18T02:52:14;-4.20;99.90
7002;DHT22;3541;53.230;10.518;2022-12-18T02:54:52;-4.20;99.90
7002;DHT22;3541;53.230;10.518;2022-12-18T02:57:30;-4.20;99.90
7002;DHT22;3541;53.230;10.518;2022-12-18T03:00:04;-4.20;99.90
7002;DHT22;3541;53.230;10.518;2022-12-18T03:02:37;-4.30;99.90
7002;DHT22;3541;53.230;10.518;2022-12-18T03:05:12;-4.30;99.90
7002;DHT22;3541;53.230;10.518;2022-12-18T03:07:43;-4.30;99.90
7002;DHT22;3541;53.230;10.518;2022-12-18T03:10:15;-4.30;99.90
7002;DHT22;3541;53.230;10.518;2022-12-18T03:12:47;-4.20;99.90
7002;DHT22;3541;53.230;10.518;2022-12-18T03:15:19;-4.20;99.90
7002;DHT22;3541;53.230;10.518;2022-12-18T03:17:52;-4.20;99.90
7002;DHT22;3541;53.230;10.518;2022-12-18T03:20:22;-4.30;99.90
7002;DHT22;3541;53.230;10.518;2022-12-18T03:22:53;-4.30;99.90
7002;DHT22;3541;53.230;10.518;2022-12-18T03:25:21;-4.40;99.90
7002;DHT22;3541;53.230;10.518;2022-12-18T03:27:55;-4.40;99.90
7002;DHT22;3541;53.230;10.518;2022-12-18T03:30:23;-4.40;99.90
7002;DHT22;3541;53.230;10.518;2022-12-18T03:32:53;-4.40;99.90
7002;DHT22;3541;53.230;10.518;2022-12-18T03:35:28;-4.50;99.90
7002;DHT22;3541;53.230;10.518;2022-12-18T03:37:55;-4.40;99.90
7002;DHT22;3541;53.230;10.518;2022-12-18T03:40:28;-4.40;99.90
7002;DHT22;3541;53.230;10.518;2022-12-18T03:43:02;-4.40;99.90
7002;DHT22;3541;53.230;10.518;2022-12-18T03:45:34;-4.40;99.90
7002;DHT22;3541;53.230;10.518;2022-12-18T03:48:06;-4.50;99.90
7002;DHT22;3541;53.230;10.518;2022-12-18T03:50:37;-4.40;99.90
7002;DHT22;3541;53.230;10.518;2022-12-18T03:53:17;-4.40;99.90
7002;DHT22;3541;53.230;10.518;2022-12-18T03:55:47;-4.50;99.90
7002;DHT22;3541;53.230;10.518;2022-12-18T03:58:19;-4.60;99.90
7002;DHT22;3541;53.230;10.518;2022-12-18T04:00:47;-4.50;99.90
7002;DHT22;3541;53.230;10.518;2022-12-18T04:03:14;-4.50;99.90
7002;DHT22;3541;53.230;10.518;2022-12-18T04:05:43;-4.50;99.90
7002;DHT22;3541;53.230;10.518;2022-12-18T04:08:10;-4.50;99.90
7002;DHT22;3541;53.230;10.518;2022-12-18T04:10:37;-4.40;99.90
7002;DHT22;3541;53.230;10.518;2022-12-18T04:13:03;-4.40;99.90
7002;DHT22;3541;53.230;10.518;2022-12-18T04:15:33;-4.40;99.90
7002;DHT22;3541;53.230;10.518;2022-12-18T04:18:01;-4.40;99.90
7002;DHT22;3541;53.230;10.518;2022-12-18T04:20:28;-4.40;99.90
7002;DHT22;3541;53.230;10.518;2022-12-18T04:22:54;-4.40;99.90
7002;DHT22;3541;53.230;10.518;2022-12-18T04:25:21;-4.40;99.90
7002;DHT22;3541;53.230;10.518;2022-12-18T04:27:47;-4.50;99.90
7002;DHT22;3541;53.230;10.518;2022-12-18T04:30:14;-4.60;99.90
7002;DHT22;3541;53.230;10.518;2022-12-18T04:32:42;-4.50;99.90
7002;DHT22;3541;53.230;10.518;2022-12-18T04:35:08;-4.60;99.90
7002;DHT22;3541;53.230;10.518;2022-12-18T04:37:37;-4.50;99.90
7002;DHT22;3541;53.230;10.518;2022-12-18T04:40:04;-4.50;99.90
7002;DHT22;3541;53.230;10.518;2022-12-18T04:42:31;-4.60;99.90
7002;DHT22;3541;53.230;10.518;2022-12-18T04:44:58;-4.50;99.90
7002;DHT22;3541;53.230;10.518;2022-12-18T04:47:24;-4.60;99.90
7002;DHT22;3541;53.230;10.518;2022-12-18T04:49:52;-4.60;99.90
7002;DHT22;3541;53.230;10.518;2022-12-18T04:52:18;-4.60;99.90
7002;DHT22;3541;53.230;10.518;2022-12-18T04:54:45;-4.70;99.90
7002;DHT22;3541;53.230;10.518;2022-12-18T04:57:12;-4.70;99.90
7002;DHT22;3541;53.230;10.518;2022-12-18T04:59:38;-4.70;99.90
7002;DHT22;3541;53.230;10.518;2022-12-18T05:02:05;-4.70;99.90
7002;DHT22;3541;53.230;10.518;2022-12-18T05:04:32;-4.60;99.90
7002;DHT22;3541;53.230;10.518;2022-12-18T05:07:00;-4.70;99.90
7002;DHT22;3541;53.230;10.518;2022-12-18T05:09:26;-4.90;99.90
7002;DHT22;3541;53.230;10.518;2022-12-18T05:11:53;-4.80;99.90
7002;DHT22;3541;53.230;10.518;2022-12-18T05:14:20;-4.70;99.90
7002;DHT22;3541;53.230;10.518;2022-12-18T05:16:46;-4.70;99.90
7002;DHT22;3541;53.230;10.518;2022-12-18T05:19:13;-4.60;99.90
7002;DHT22;3541;53.230;10.518;2022-12-18T05:21:39;-4.60;99.90
7002;DHT22;3541;53.230;10.518;2022-12-18T05:24:07;-4.70;99.90
7002;DHT22;3541;53.230;10.518;2022-12-18T05:26:34;-4.70;99.90
7002;DHT22;3541;53.230;10.518;2022-12-18T05:29:00;-4.60;99.90
7002;DHT22;3541;53.230;10.518;2022-12-18T05:31:27;-4.70;99.90
7002;DHT22;3541;53.230;10.518;2022-12-18T05:33:54;-4.60;99.90
7002;DHT22;3541;53.230;10.518;2022-12-18T05:36:20;-4.60;99.90
7002;DHT22;3541;53.230;10.518;2022-12-18T05:38:47;-4.60;99.90
7002;DHT22;3541;53.230;10.518;2022-12-18T05:41:15;-4.60;99.90
7002;DHT22;3541;53.230;10.518;2022-12-18T05:43:42;-4.60;99.90
7002;DHT22;3541;53.230;10.518;2022-12-18T05:46:12;-4.70;99.90
7002;DHT22;3541;53.230;10.518;2022-12-18T05:48:39;-4.80;99.90
7002;DHT22;3541;53.230;10.518;2022-12-18T05:51:07;-4.80;99.90
7002;DHT22;3541;53.230;10.518;2022-12-18T05:53:35;-4.70;99.90
7002;DHT22;3541;53.230;10.518;2022-12-18T05:56:02;-4.80;99.90
7002;DHT22;3541;53.230;10.518;2022-12-18T05:58:31;-4.80;99.90
7002;DHT22;3541;53.230;10.518;2022-12-18T06:01:05;-4.70;99.90
7002;DHT22;3541;53.230;10.518;2022-12-18T06:03:31;-4.70;99.90
7002;DHT22;3541;53.230;10.518;2022-12-18T06:05:58;-4.80;99.90
7002;DHT22;3541;53.230;10.518;2022-12-18T06:08:25;-4.80;99.90
7002;DHT22;3541;53.230;10.518;2022-12-18T06:10:52;-4.80;99.90
7002;DHT22;3541;53.230;10.518;2022-12-18T06:13:19;-4.90;99.90
7002;DHT22;3541;53.230;10.518;2022-12-18T06:15:47;-4.90;99.90
7002;DHT22;3541;53.230;10.518;2022-12-18T06:18:13;-5.00;99.90
7002;DHT22;3541;53.230;10.518;2022-12-18T06:20:40;-5.00;99.90
7002;DHT22;3541;53.230;10.518;2022-12-18T06:23:07;-5.10;99.90
7002;DHT22;3541;53.230;10.518;2022-12-18T06:25:38;-5.10;99.90
7002;DHT22;3541;53.230;10.518;2022-12-18T06:28:05;-5.10;99.90
7002;DHT22;3541;53.230;10.518;2022-12-18T06:30:31;-5.10;99.90
7002;DHT22;3541;53.230;10.518;2022-12-18T06:32:59;-5.20;99.90
7002;DHT22;3541;53.230;10.518;2022-12-18T06:35:26;-5.20;99.90
7002;DHT22;3541;53.230;10.518;2022-12-18T06:37:52;-5.20;99.90
7002;DHT22;3541;53.230;10.518;2022-12-18T06:40:19;-5.20;99.90
7002;DHT22;3541;53.230;10.518;2022-12-18T06:42:46;-5.30;99.90
7002;DHT22;3541;53.230;10.518;2022-12-18T06:45:13;-5.30;99.90
7002;DHT22;3541;53.230;10.518;2022-12-18T06:47:42;-5.30;99.90
7002;DHT22;3541;53.230;10.518;2022-12-18T06:50:10;-5.20;99.90
7002;DHT22;3541;53.230;10.518;2022-12-18T06:52:37;-5.20;99.90
7002;DHT22;3541;53.230;10.518;2022-12-18T06:55:05;-5.30;99.90
7002;DHT22;3541;53.230;10.518;2022-12-18T06:57:35;-5.30;99.90
7002;DHT22;3541;53.230;10.518;2022-12-18T07:00:02;-5.50;99.90
7002;DHT22;3541;53.230;10.518;2022-12-18T07:02:29;-5.40;99.90
7002;DHT22;3541;53.230;10.518;2022-12-18T07:04:55;-5.30;99.90
7002;DHT22;3541;53.230;10.518;2022-12-18T07:07:23;-5.30;99.90
7002;DHT22;3541;53.230;10.518;2022-12-18T07:09:51;-5.40;99.90
7002;DHT22;3541;53.230;10.518;2022-12-18T07:12:17;-5.40;99.90
7002;DHT22;3541;53.230;10.518;2022-12-18T07:14:44;-5.40;99.90
7002;DHT22;3541;53.230;10.518;2022-12-18T07:17:10;-5.40;99.90
7002;DHT22;3541;53.230;10.518;2022-12-18T07:19:37;-5.50;99.90
7002;DHT22;3541;53.230;10.518;2022-12-18T07:22:04;-5.50;99.90
7002;DHT22;3541;53.230;10.518;2022-12-18T07:24:32;-5.40;99.90
7002;DHT22;3541;53.230;10.518;2022-12-18T07:26:59;-5.40;99.90
7002;DHT22;3541;53.230;10.518;2022-12-18T07:29:26;-5.50;99.90
7002;DHT22;3541;53.230;10.518;2022-12-18T07:31:52;-5.50;99.90
7002;DHT22;3541;53.230;10.518;2022-12-18T07:34:19;-5.40;99.90
7002;DHT22;3541;53.230;10.518;2022-12-18T07:36:45;-5.50;99.90
7002;DHT22;3541;53.230;10.518;2022-12-18T07:39:12;-5.50;99.90
7002;DHT22;3541;53.230;10.518;2022-12-18T07:41:40;-5.50;99.90
7002;DHT22;3541;53.230;10.518;2022-12-18T07:44:11;-5.50;99.90
7002;DHT22;3541;53.230;10.518;2022-12-18T07:46:38;-5.60;99.90
7002;DHT22;3541;53.230;10.518;2022-12-18T07:49:04;-5.50;99.90
7002;DHT22;3541;53.230;10.518;2022-12-18T07:51:31;-5.50;99.90
7002;DHT22;3541;53.230;10.518;2022-12-18T07:53:58;-5.50;99.90
7002;DHT22;3541;53.230;10.518;2022-12-18T07:56:24;-5.40;99.90
7002;DHT22;3541;53.230;10.518;2022-12-18T07:58:53;-5.40;99.90
7002;DHT22;3541;53.230;10.518;2022-12-18T08:01:21;-5.40;99.90
7002;DHT22;3541;53.230;10.518;2022-12-18T08:03:48;-5.40;99.90
7002;DHT22;3541;53.230;10.518;2022-12-18T08:06:15;-5.40;99.90
7002;DHT22;3541;53.230;10.518;2022-12-18T08:08:41;-5.50;99.90
7002;DHT22;3541;53.230;10.518;2022-12-18T08:11:08;-5.50;99.90
7002;DHT22;3541;53.230;10.518;2022-12-18T08:13:34;-5.50;99.90
7002;DHT22;3541;53.230;10.518;2022-12-18T08:16:04;-5.50;99.90
7002;DHT22;3541;53.230;10.518;2022-12-18T08:18:32;-5.40;99.90
7002;DHT22;3541;53.230;10.518;2022-12-18T08:21:08;-5.40;99.90
7002;DHT22;3541;53.230;10.518;2022-12-18T08:23:34;-5.40;99.90
7002;DHT22;3541;53.230;10.518;2022-12-18T08:26:01;-5.40;99.90
7002;DHT22;3541;53.230;10.518;2022-12-18T08:28:28;-5.30;99.90
7002;DHT22;3541;53.230;10.518;2022-12-18T08:30:54;-5.40;99.90
7002;DHT22;3541;53.230;10.518;2022-12-18T08:33:22;-5.40;99.90
7002;DHT22;3541;53.230;10.518;2022-12-18T08:35:49;-5.30;99.90
7002;DHT22;3541;53.230;10.518;2022-12-18T08:38:16;-5.40;99.90
7002;DHT22;3541;53.230;10.518;2022-12-18T08:40:42;-5.40;99.90
7002;DHT22;3541;53.230;10.518;2022-12-18T08:43:09;-5.40;99.90
7002;DHT22;3541;53.230;10.518;2022-12-18T08:45:54;-5.50;99.90
7002;DHT22;3541;53.230;10.518;2022-12-18T08:48:22;-5.30;99.90
7002;DHT22;3541;53.230;10.518;2022-12-18T08:50:54;-5.30;99.90
7002;DHT22;3541;53.230;10.518;2022-12-18T08:53:21;-5.20;99.90
7002;DHT22;3541;53.230;10.518;2022-12-18T08:55:50;-5.30;99.90
7002;DHT22;3541;53.230;10.518;2022-12-18T08:58:16;-5.20;99.90
7002;DHT22;3541;53.230;10.518;2022-12-18T09:00:43;-5.20;99.90
7002;DHT22;3541;53.230;10.518;2022-12-18T09:03:11;-5.20;99.90
7002;DHT22;3541;53.230;10.518;2022-12-18T09:05:39;-5.20;99.90
7002;DHT22;3541;53.230;10.518;2022-12-18T09:08:06;-5.20;99.90
7002;DHT22;3541;53.230;10.518;2022-12-18T09:10:33;-5.10;99.90
7002;DHT22;3541;53.230;10.518;2022-12-18T09:13:00;-5.00;99.90
7002;DHT22;3541;53.230;10.518;2022-12-18T09:15:26;-5.20;99.90
7002;DHT22;3541;53.230;10.518;2022-12-18T09:17:53;-5.10;99.90
7002;DHT22;3541;53.230;10.518;2022-12-18T09:20:20;-5.20;99.90
7002;DHT22;3541;53.230;10.518;2022-12-18T09:22:48;-5.10;99.90
7002;DHT22;3541;53.230;10.518;2022-12-18T09:25:14;-5.10;99.90
7002;DHT22;3541;53.230;10.518;2022-12-18T09:27:41;-5.00;99.90
7002;DHT22;3541;53.230;10.518;2022-12-18T09:30:09;-4.90;99.90
7002;DHT22;3541;53.230;10.518;2022-12-18T09:32:35;-4.90;99.90
7002;DHT22;3541;53.230;10.518;2022-12-18T09:35:02;-4.80;99.90
7002;DHT22;3541;53.230;10.518;2022-12-18T09:37:29;-4.90;99.90
7002;DHT22;3541;53.230;10.518;2022-12-18T09:39:57;-4.80;99.90
7002;DHT22;3541;53.230;10.518;2022-12-18T09:42:24;-4.80;99.90
7002;DHT22;3541;53.230;10.518;2022-12-18T09:44:53;-4.80;99.90
7002;DHT22;3541;53.230;10.518;2022-12-18T09:47:22;-4.70;99.90
7002;DHT22;3541;53.230;10.518;2022-12-18T09:49:51;-4.70;99.90
7002;DHT22;3541;53.230;10.518;2022-12-18T09:52:23;-4.60;99.90
7002;DHT22;3541;53.230;10.518;2022-12-18T09:54:55;-4.70;99.90
7002;DHT22;3541;53.230;10.518;2022-12-18T09:57:24;-4.60;99.90
7002;DHT22;3541;53.230;10.518;2022-12-18T09:59:55;-4.60;99.90
7002;DHT22;3541;53.230;10.518;2022-12-18T10:02:24;-4.50;99.90
7002;DHT22;3541;53.230;10.518;2022-12-18T10:05:00;-4.40;99.90
7002;DHT22;3541;53.230;10.518;2022-12-18T10:07:34;-4.30;99.90
7002;DHT22;3541;53.230;10.518;2022-12-18T10:10:12;-4.20;99.90
7002;DHT22;3541;53.230;10.518;2022-12-18T10:12:45;-4.20;99.90
7002;DHT22;3541;53.230;10.518;2022-12-18T10:15:18;-4.10;99.90
7002;DHT22;3541;53.230;10.518;2022-12-18T10:17:53;-4.00;99.90
7002;DHT22;3541;53.230;10.518;2022-12-18T10:20:29;-4.00;99.90
7002;DHT22;3541;53.230;10.518;2022-12-18T10:23:01;-3.90;99.90
7002;DHT22;3541;53.230;10.518;2022-12-18T10:25:33;-4.00;99.90
7002;DHT22;3541;53.230;10.518;2022-12-18T10:28:09;-4.00;99.90
7002;DHT22;3541;53.230;10.518;2022-12-18T10:30:38;-3.90;99.90
7002;DHT22;3541;53.230;10.518;2022-12-18T10:33:05;-3.90;99.90
7002;DHT22;3541;53.230;10.518;2022-12-18T10:35:34;-3.90;99.90
7002;DHT22;3541;53.230;10.518;2022-12-18T10:38:05;-3.80;99.90
7002;DHT22;3541;53.230;10.518;2022-12-18T10:40:32;-3.70;99.90
7002;DHT22;3541;53.230;10.518;2022-12-18T10:43:12;-3.70;99.90
7002;DHT22;3541;53.230;10.518;2022-12-18T10:45:40;-3.60;99.90
7002;DHT22;3541;53.230;10.518;2022-12-18T10:48:18;-3.60;99.90
7002;DHT22;3541;53.230;10.518;2022-12-18T10:50:48;-3.60;99.90
7002;DHT22;3541;53.230;10.518;2022-12-18T10:53:19;-3.60;99.90
7002;DHT22;3541;53.230;10.518;2022-12-18T10:55:46;-3.60;99.90
7002;DHT22;3541;53.230;10.518;2022-12-18T10:58:23;-3.50;99.90
7002;DHT22;3541;53.230;10.518;2022-12-18T11:01:08;-3.50;99.90
7002;DHT22;3541;53.230;10.518;2022-12-18T11:03:37;-3.50;99.90
7002;DHT22;3541;53.230;10.518;2022-12-18T11:06:09;-3.50;99.90
7002;DHT22;3541;53.230;10.518;2022-12-18T11:08:36;-3.50;99.90
7002;DHT22;3541;53.230;10.518;2022-12-18T11:11:06;-3.50;99.90
7002;DHT22;3541;53.230;10.518;2022-12-18T11:13:34;-3.50;99.90
7002;DHT22;3541;53.230;10.518;2022-12-18T11:16:01;-3.40;99.90
7002;DHT22;3541;53.230;10.518;2022-12-18T11:18:30;-3.50;99.90
7002;DHT22;3541;53.230;10.518;2022-12-18T11:21:00;-3.40;99.90
7002;DHT22;3541;53.230;10.518;2022-12-18T11:23:31;-3.40;99.90
7002;DHT22;3541;53.230;10.518;2022-12-18T11:25:59;-3.40;99.90
7002;DHT22;3541;53.230;10.518;2022-12-18T11:28:35;-3.40;99.90
7002;DHT22;3541;53.230;10.518;2022-12-18T11:31:27;-3.40;99.90
7002;DHT22;3541;53.230;10.518;2022-12-18T11:34:00;-3.40;99.90
7002;DHT22;3541;53.230;10.518;2022-12-18T11:36:30;-3.20;99.90
7002;DHT22;3541;53.230;10.518;2022-12-18T11:39:03;-3.20;99.90
7002;DHT22;3541;53.230;10.518;2022-12-18T11:41:36;-3.20;99.90
7002;DHT22;3541;53.230;10.518;2022-12-18T11:44:26;-3.10;99.90
7002;DHT22;3541;53.230;10.518;2022-12-18T11:46:58;-3.10;99.90
7002;DHT22;3541;53.230;10.518;2022-12-18T11:49:29;-3.10;99.90
7002;DHT22;3541;53.230;10.518;2022-12-18T11:52:04;-3.00;99.90
7002;DHT22;3541;53.230;10.518;2022-12-18T11:54:32;-3.10;99.90
7002;DHT22;3541;53.230;10.518;2022-12-18T11:57:06;-3.00;99.90
7002;DHT22;3541;53.230;10.518;2022-12-18T11:59:43;-3.00;99.90
7002;DHT22;3541;53.230;10.518;2022-12-18T12:02:24;-3.00;99.90
7002;DHT22;3541;53.230;10.518;2022-12-18T12:05:20;-3.00;99.90
7002;DHT22;3541;53.230;10.518;2022-12-18T12:07:58;-2.90;99.90
7002;DHT22;3541;53.230;10.518;2022-12-18T12:10:38;-2.90;99.90
7002;DHT22;3541;53.230;10.518;2022-12-18T12:13:20;-3.00;99.90
7002;DHT22;3541;53.230;10.518;2022-12-18T12:16:03;-2.90;99.90
7002;DHT22;3541;53.230;10.518;2022-12-18T12:18:43;-2.90;99.90
7002;DHT22;3541;53.230;10.518;2022-12-18T12:21:17;-2.80;99.90
7002;DHT22;3541;53.230;10.518;2022-12-18T12:23:52;-2.80;99.90
7002;DHT22;3541;53.230;10.518;2022-12-18T12:26:23;-2.80;99.90
7002;DHT22;3541;53.230;10.518;2022-12-18T12:29:13;-2.80;99.90
7002;DHT22;3541;53.230;10.518;2022-12-18T12:31:59;-2.80;99.90
7002;DHT22;3541;53.230;10.518;2022-12-18T12:34:34;-2.70;99.90
7002;DHT22;3541;53.230;10.518;2022-12-18T12:37:16;-2.70;99.90
7002;DHT22;3541;53.230;10.518;2022-12-18T12:39:47;-2.60;99.90
7002;DHT22;3541;53.230;10.518;2022-12-18T12:42:23;-2.60;99.90
7002;DHT22;3541;53.230;10.518;2022-12-18T12:45:18;-2.70;99.90
7002;DHT22;3541;53.230;10.518;2022-12-18T12:47:49;-2.60;99.90
7002;DHT22;3541;53.230;10.518;2022-12-18T12:50:18;-2.60;99.90
7002;DHT22;3541;53.230;10.518;2022-12-18T12:52:47;-2.60;99.90
7002;DHT22;3541;53.230;10.518;2022-12-18T12:55:17;-2.60;99.90
7002;DHT22;3541;53.230;10.518;2022-12-18T12:57:47;-2.60;99.90
7002;DHT22;3541;53.230;10.518;2022-12-18T13:00:18;-2.60;99.90
7002;DHT22;3541;53.230;10.518;2022-12-18T13:02:52;-2.60;99.90
7002;DHT22;3541;53.230;10.518;2022-12-18T13:05:26;-2.60;99.90
7002;DHT22;3541;53.230;10.518;2022-12-18T13:07:56;-2.60;99.90
7002;DHT22;3541;53.230;10.518;2022-12-18T13:10:31;-2.60;99.90
7002;DHT22;3541;53.230;10.518;2022-12-18T13:13:00;-2.60;99.90
7002;DHT22;3541;53.230;10.518;2022-12-18T13:15:33;-2.50;99.90
7002;DHT22;3541;53.230;10.518;2022-12-18T13:18:10;-2.60;99.90
7002;DHT22;3541;53.230;10.518;2022-12-18T13:20:40;-2.60;99.90
7002;DHT22;3541;53.230;10.518;2022-12-18T13:23:27;-2.50;99.90
7002;DHT22;3541;53.230;10.518;2022-12-18T13:25:55;-2.50;99.90
7002;DHT22;3541;53.230;10.518;2022-12-18T13:28:24;-2.50;99.90
7002;DHT22;3541;53.230;10.518;2022-12-18T13:31:12;-2.50;99.90
7002;DHT22;3541;53.230;10.518;2022-12-18T13:33:41;-2.60;99.90
7002;DHT22;3541;53.230;10.518;2022-12-18T13:36:13;-2.50;99.90
7002;DHT22;3541;53.230;10.518;2022-12-18T13:38:41;-2.60;99.90
7002;DHT22;3541;53.230;10.518;2022-12-18T13:41:23;-2.60;99.90
7002;DHT22;3541;53.230;10.518;2022-12-18T13:43:51;-2.70;99.90
7002;DHT22;3541;53.230;10.518;2022-12-18T13:46:23;-2.70;99.90
7002;DHT22;3541;53.230;10.518;2022-12-18T13:48:53;-2.70;99.90
7002;DHT22;3541;53.230;10.518;2022-12-18T13:51:21;-2.70;99.90
7002;DHT22;3541;53.230;10.518;2022-12-18T13:53:51;-2.70;99.90
7002;DHT22;3541;53.230;10.518;2022-12-18T13:56:22;-2.60;99.90
7002;DHT22;3541;53.230;10.518;2022-12-18T13:59:10;-2.60;99.90
7002;DHT22;3541;53.230;10.518;2022-12-18T14:01:44;-2.70;99.90
7002;DHT22;3541;53.230;10.518;2022-12-18T14:04:12;-2.70;99.90
7002;DHT22;3541;53.230;10.518;2022-12-18T14:06:43;-2.60;99.90
7002;DHT22;3541;53.230;10.518;2022-12-18T14:09:14;-2.70;99.90
7002;DHT22;3541;53.230;10.518;2022-12-18T14:11:46;-2.70;99.90
7002;DHT22;3541;53.230;10.518;2022-12-18T14:14:14;-2.70;99.90
7002;DHT22;3541;53.230;10.518;2022-12-18T14:16:42;-2.70;99.90
7002;DHT22;3541;53.230;10.518;2022-12-18T14:19:13;-2.70;99.90
7002;DHT22;3541;53.230;10.518;2022-12-18T14:21:40;-2.70;99.90
7002;DHT22;3541;53.230;10.518;2022-12-18T14:24:14;-2.80;99.90
7002;DHT22;3541;53.230;10.518;2022-12-18T14:26:42;-2.80;99.90
7002;DHT22;3541;53.230;10.518;2022-12-18T14:29:21;-2.90;99.90
7002;DHT22;3541;53.230;10.518;2022-12-18T14:32:05;-2.90;99.90
7002;DHT22;3541;53.230;10.518;2022-12-18T14:34:31;-2.90;99.90
7002;DHT22;3541;53.230;10.518;2022-12-18T14:36:58;-2.90;99.90
7002;DHT22;3541;53.230;10.518;2022-12-18T14:39:25;-2.90;99.90
7002;DHT22;3541;53.230;10.518;2022-12-18T14:41:52;-3.00;99.90
7002;DHT22;3541;53.230;10.518;2022-12-18T14:44:18;-2.90;99.90
7002;DHT22;3541;53.230;10.518;2022-12-18T14:46:47;-3.00;99.90
7002;DHT22;3541;53.230;10.518;2022-12-18T14:49:23;-3.00;99.90
7002;DHT22;3541;53.230;10.518;2022-12-18T14:51:52;-2.90;99.90
7002;DHT22;3541;53.230;10.518;2022-12-18T14:54:20;-3.00;99.90
7002;DHT22;3541;53.230;10.518;2022-12-18T14:56:48;-3.00;99.90
7002;DHT22;3541;53.230;10.518;2022-12-18T14:59:18;-3.10;99.90
7002;DHT22;3541;53.230;10.518;2022-12-18T15:01:51;-3.00;99.90
7002;DHT22;3541;53.230;10.518;2022-12-18T15:04:28;-2.90;99.90
7002;DHT22;3541;53.230;10.518;2022-12-18T15:07:08;-2.90;99.90
7002;DHT22;3541;53.230;10.518;2022-12-18T15:09:36;-3.00;99.90
7002;DHT22;3541;53.230;10.518;2022-12-18T15:12:04;-3.00;99.90
7002;DHT22;3541;53.230;10.518;2022-12-18T15:14:38;-3.00;99.90
7002;DHT22;3541;53.230;10.518;2022-12-18T15:17:06;-3.00;99.90
7002;DHT22;3541;53.230;10.518;2022-12-18T15:19:43;-3.10;99.90
7002;DHT22;3541;53.230;10.518;2022-12-18T15:22:18;-3.00;99.90
7002;DHT22;3541;53.230;10.518;2022-12-18T15:24:46;-3.00;99.90
7002;DHT22;3541;53.230;10.518;2022-12-18T15:27:28;-3.10;99.90
7002;DHT22;3541;53.230;10.518;2022-12-18T15:30:18;-3.00;99.90
7002;DHT22;3541;53.230;10.518;2022-12-18T15:32:45;-3.20;99.90
7002;DHT22;3541;53.230;10.518;2022-12-18T15:35:17;-3.20;99.90
7002;DHT22;3541;53.230;10.518;2022-12-18T15:37:44;-3.20;99.90
7002;DHT22;3541;53.230;10.518;2022-12-18T15:40:15;-3.30;99.90
7002;DHT22;3541;53.230;10.518;2022-12-18T15:42:42;-3.30;99.90
7002;DHT22;3541;53.230;10.518;2022-12-18T15:45:27;-3.30;99.90
7002;DHT22;3541;53.230;10.518;2022-12-18T15:47:53;-3.30;99.90
7002;DHT22;3541;53.230;10.518;2022-12-18T15:50:21;-3.30;99.90
7002;DHT22;3541;53.230;10.518;2022-12-18T15:52:51;-3.30;99.90
7002;DHT22;3541;53.230;10.518;2022-12-18T15:55:20;-3.20;99.90
7002;DHT22;3541;53.230;10.518;2022-12-18T15:58:04;-3.20;99.90
7002;DHT22;3541;53.230;10.518;2022-12-18T16:00:31;-3.10;99.90
7002;DHT22;3541;53.230;10.518;2022-12-18T16:02:59;-3.30;99.90
7002;DHT22;3541;53.230;10.518;2022-12-18T16:05:27;-3.30;99.90